Time;durP1;ratioP1;P1;durP2;ratioP2;P2;SDS_P1;SDS_P2;PMS_P1;PMS_P2;Temp;Humidity;BMP_temperature;BMP_pressure;BME280_temperature;BME280_humidity;BME280_pressure;Samples;Min_cycle;Max_cycle;Signal;HPM_P1;HPM_P2
2021/07/16 00:00:34;;;;;;;;;;;20.10;96.30;;;;;;5049334;28;20373;-76
2021/07/16 00:03:00;;;;;;;;;;;20.10;96.60;;;;;;5034053;28;19916;-77
2021/07/16 00:05:25;;;;;;;;;;;20.10;96.50;;;;;;5034172;28;20393;-76
2021/07/16 00:07:51;;;;;;;;;;;20.10;96.40;;;;;;5033751;28;19943;-75
2021/07/16 00:10:20;;;;;;;;;;;20.00;96.70;;;;;;5034311;28;19909;-78
2021/07/16 00:12:47;;;;;;;;;;;19.70;97.10;;;;;;5033930;28;19913;-77
2021/07/16 00:15:13;;;;;;;;;;;19.70;97.40;;;;;;5048621;28;19994;-78
2021/07/16 00:17:39;;;;;;;;;;;19.70;97.30;;;;;;5033882;28;20354;-78
2021/07/16 00:20:05;;;;;;;;;;;19.60;97.30;;;;;;5033794;28;19909;-76
2021/07/16 00:22:31;;;;;;;;;;;19.60;97.50;;;;;;5033733;28;19995;-76
2021/07/16 00:24:56;;;;;;;;;;;19.60;97.50;;;;;;5033625;28;19916;-78
2021/07/16 00:27:22;;;;;;;;;;;19.50;97.60;;;;;;5033682;28;19955;-78
2021/07/16 00:29:48;;;;;;;;;;;19.50;97.80;;;;;;5033658;28;20004;-78
2021/07/16 00:32:13;;;;;;;;;;;19.50;97.60;;;;;;5033563;28;19956;-77
2021/07/16 00:34:39;;;;;;;;;;;19.50;97.60;;;;;;5034059;28;19944;-77
2021/07/16 00:37:04;;;;;;;;;;;19.50;97.60;;;;;;5033598;28;19945;-77
2021/07/16 00:39:32;;;;;;;;;;;19.50;97.70;;;;;;5033548;28;19928;-78
2021/07/16 00:41:57;;;;;;;;;;;19.70;97.30;;;;;;5033535;28;19964;-76
2021/07/16 00:44:24;;;;;;;;;;;19.70;97.40;;;;;;5048804;28;20374;-77
2021/07/16 00:46:50;;;;;;;;;;;19.70;97.30;;;;;;5033818;28;19909;-78
2021/07/16 00:49:15;;;;;;;;;;;19.70;97.20;;;;;;5033568;28;20266;-78
2021/07/16 00:51:41;;;;;;;;;;;19.80;97.10;;;;;;5048831;28;20048;-76
2021/07/16 00:54:07;;;;;;;;;;;19.90;97.10;;;;;;5033831;28;19913;-77
2021/07/16 00:56:33;;;;;;;;;;;19.90;96.90;;;;;;5033474;28;20482;-76
2021/07/16 00:58:58;;;;;;;;;;;19.80;97.10;;;;;;5033643;28;19921;-77
2021/07/16 01:01:24;;;;;;;;;;;19.80;97.20;;;;;;5033420;28;19916;-77
2021/07/16 01:03:49;;;;;;;;;;;20.00;97.00;;;;;;5033422;28;19916;-75
2021/07/16 01:06:15;;;;;;;;;;;20.10;96.70;;;;;;5033741;28;19913;-76
2021/07/16 01:08:41;;;;;;;;;;;20.00;96.80;;;;;;5048482;28;19925;-77
2021/07/16 01:11:06;;;;;;;;;;;20.00;96.80;;;;;;5033333;28;19937;-76
2021/07/16 01:13:32;;;;;;;;;;;20.00;96.80;;;;;;5033181;28;19920;-77
2021/07/16 01:15:58;;;;;;;;;;;19.90;97.10;;;;;;5033682;28;19952;-77
2021/07/16 01:18:23;;;;;;;;;;;19.70;97.30;;;;;;5033547;28;20300;-76
2021/07/16 01:20:49;;;;;;;;;;;19.80;97.50;;;;;;5033433;28;19909;-75
2021/07/16 01:23:24;;;;;;;;;;;19.70;97.40;;;;;;5033169;28;19916;-78
2021/07/16 01:25:51;;;;;;;;;;;19.50;97.80;;;;;;5033550;28;19909;-77
2021/07/16 01:28:17;;;;;;;;;;;19.50;98.10;;;;;;5036877;28;19909;-76
2021/07/16 01:30:43;;;;;;;;;;;19.60;97.90;;;;;;5036854;28;19909;-77
2021/07/16 01:33:08;;;;;;;;;;;19.70;97.70;;;;;;5036702;28;19916;-76
2021/07/16 01:35:34;;;;;;;;;;;19.60;97.70;;;;;;5036957;28;20262;-75
2021/07/16 01:38:00;;;;;;;;;;;19.70;97.60;;;;;;5037044;28;19916;-76
2021/07/16 01:40:26;;;;;;;;;;;19.60;97.80;;;;;;5036789;28;19915;-77
2021/07/16 01:42:53;;;;;;;;;;;19.60;97.80;;;;;;5036754;28;19941;-77
2021/07/16 01:45:20;;;;;;;;;;;19.70;97.70;;;;;;5036551;28;19941;-78
2021/07/16 01:47:48;;;;;;;;;;;19.60;97.70;;;;;;5036531;28;19952;-77
2021/07/16 01:50:14;;;;;;;;;;;19.50;98.00;;;;;;5036438;28;19916;-77
2021/07/16 01:52:40;;;;;;;;;;;19.50;98.00;;;;;;5036386;28;19913;-77
2021/07/16 01:55:06;;;;;;;;;;;19.60;98.00;;;;;;5036373;28;20348;-77
2021/07/16 01:57:32;;;;;;;;;;;19.70;97.70;;;;;;5036558;28;19992;-78
2021/07/16 01:59:57;;;;;;;;;;;19.50;98.00;;;;;;5036342;28;19940;-78
2021/07/16 02:02:23;;;;;;;;;;;19.60;97.90;;;;;;5036556;28;19952;-78
2021/07/16 02:04:49;;;;;;;;;;;19.60;98.00;;;;;;5036380;28;20315;-77
2021/07/16 02:07:14;;;;;;;;;;;19.40;98.10;;;;;;5035995;28;19909;-76
2021/07/16 02:09:40;;;;;;;;;;;19.20;98.40;;;;;;5036547;28;19913;-76
2021/07/16 02:12:06;;;;;;;;;;;19.10;98.60;;;;;;5036026;28;19944;-77
2021/07/16 02:14:32;;;;;;;;;;;18.90;99.20;;;;;;5036003;28;19995;-75
2021/07/16 02:17:00;;;;;;;;;;;19.00;98.90;;;;;;5035995;28;19909;-78
2021/07/16 02:19:26;;;;;;;;;;;19.00;98.70;;;;;;5036140;28;19915;-76
2021/07/16 02:21:51;;;;;;;;;;;19.00;98.50;;;;;;5036121;28;19967;-77
2021/07/16 02:24:17;;;;;;;;;;;19.00;98.60;;;;;;5035917;28;19909;-77
2021/07/16 02:26:43;;;;;;;;;;;18.70;99.10;;;;;;5035843;28;19989;-77
2021/07/16 02:29:09;;;;;;;;;;;18.60;99.60;;;;;;5034491;28;19944;-76
2021/07/16 02:31:34;;;;;;;;;;;18.50;99.60;;;;;;5035908;28;19909;-78
2021/07/16 02:34:00;;;;;;;;;;;18.50;99.80;;;;;;5035867;28;19913;-77
2021/07/16 02:36:25;;;;;;;;;;;18.50;99.80;;;;;;5035678;28;19916;-76
2021/07/16 02:38:51;;;;;;;;;;;18.50;99.70;;;;;;5034982;28;19916;-76
2021/07/16 02:41:17;;;;;;;;;;;18.40;99.70;;;;;;5035918;28;19910;-77
2021/07/16 02:43:43;;;;;;;;;;;18.30;99.90;;;;;;5035389;28;19916;-77
2021/07/16 02:46:09;;;;;;;;;;;18.30;99.90;;;;;;5035405;28;19936;-76
2021/07/16 02:48:35;;;;;;;;;;;18.30;99.90;;;;;;5034152;28;19918;-77
2021/07/16 02:51:01;;;;;;;;;;;18.40;99.90;;;;;;5035742;28;19913;-78
2021/07/16 02:53:26;;;;;;;;;;;18.30;99.90;;;;;;5035389;28;19920;-76
2021/07/16 02:55:52;;;;;;;;;;;18.20;99.90;;;;;;5034002;28;19909;-78
2021/07/16 02:58:18;;;;;;;;;;;18.20;99.90;;;;;;5035211;28;19909;-77
2021/07/16 03:00:44;;;;;;;;;;;18.10;99.90;;;;;;5035524;28;20012;-77
2021/07/16 03:03:10;;;;;;;;;;;18.00;99.90;;;;;;5035250;28;20259;-77
2021/07/16 03:05:36;;;;;;;;;;;17.70;99.90;;;;;;5035124;28;19992;-78
2021/07/16 03:08:03;;;;;;;;;;;17.90;99.90;;;;;;5034878;28;19932;-77
2021/07/16 03:10:30;;;;;;;;;;;18.00;99.90;;;;;;5034913;28;19996;-79
2021/07/16 03:12:57;;;;;;;;;;;17.90;99.90;;;;;;5034828;28;19956;-76
2021/07/16 03:15:23;;;;;;;;;;;17.70;99.90;;;;;;5035112;28;19955;-77
2021/07/16 03:17:49;;;;;;;;;;;17.60;99.90;;;;;;5034800;28;19909;-78
2021/07/16 03:20:16;;;;;;;;;;;17.80;99.90;;;;;;5034765;28;20489;-77
2021/07/16 03:22:42;;;;;;;;;;;17.80;99.90;;;;;;5049970;28;19967;-76
2021/07/16 03:25:09;;;;;;;;;;;17.70;99.90;;;;;;5034699;28;19912;-76
2021/07/16 03:27:35;;;;;;;;;;;17.60;99.90;;;;;;5049959;28;20325;-78
2021/07/16 03:30:01;;;;;;;;;;;17.60;99.90;;;;;;5034609;28;19913;-77
2021/07/16 03:32:27;;;;;;;;;;;17.50;99.90;;;;;;5034483;28;20290;-77
2021/07/16 03:34:53;;;;;;;;;;;17.60;99.90;;;;;;5034864;28;19909;-78
2021/07/16 03:37:19;;;;;;;;;;;17.50;99.90;;;;;;5034743;28;19963;-78
2021/07/16 03:39:45;;;;;;;;;;;17.50;99.90;;;;;;5034375;28;19909;-77
2021/07/16 03:42:11;;;;;;;;;;;17.50;99.90;;;;;;5049697;28;19913;-76
2021/07/16 03:44:36;;;;;;;;;;;17.60;99.90;;;;;;5034615;28;19959;-78
2021/07/16 03:47:02;;;;;;;;;;;17.50;99.90;;;;;;5034453;28;19975;-77
2021/07/16 03:49:28;;;;;;;;;;;17.60;99.90;;;;;;5033788;28;19915;-76
2021/07/16 03:51:55;;;;;;;;;;;17.60;99.90;;;;;;5034206;28;19940;-77
2021/07/16 03:54:22;;;;;;;;;;;17.60;99.90;;;;;;5034169;28;19928;-75
2021/07/16 03:56:48;;;;;;;;;;;17.70;99.90;;;;;;5034491;28;19909;-76
2021/07/16 03:59:14;;;;;;;;;;;17.60;99.90;;;;;;5034231;28;19936;-76
2021/07/16 04:01:40;;;;;;;;;;;17.50;99.90;;;;;;5034147;28;19915;-77
2021/07/16 04:04:05;;;;;;;;;;;17.50;99.90;;;;;;5032751;28;19960;-77
2021/07/16 04:06:32;;;;;;;;;;;17.30;99.90;;;;;;5034410;28;19920;-78
2021/07/16 04:09:40;;;;;;;;;;;17.20;99.90;;;;;;5033754;28;20397;-77
2021/07/16 04:11:46;;;;;;;;;;;17.30;99.90;;;;;;5030912;28;19966;-78
2021/07/16 04:14:12;;;;;;;;;;;17.20;99.90;;;;;;5032562;28;20266;-76
2021/07/16 04:16:38;;;;;;;;;;;17.20;99.90;;;;;;5034066;28;19916;-77
2021/07/16 04:19:03;;;;;;;;;;;17.20;99.90;;;;;;5049089;28;20443;-76
2021/07/16 04:21:29;;;;;;;;;;;17.10;99.90;;;;;;5033809;28;19913;-78
2021/07/16 04:23:54;;;;;;;;;;;17.10;99.90;;;;;;5033995;28;19967;-77
2021/07/16 04:26:20;;;;;;;;;;;17.00;99.90;;;;;;5033770;28;19913;-77
2021/07/16 04:28:46;;;;;;;;;;;17.10;99.90;;;;;;5033789;28;20377;-76
2021/07/16 04:31:11;;;;;;;;;;;17.10;99.90;;;;;;5033706;28;19913;-77
2021/07/16 04:33:37;;;;;;;;;;;17.00;99.90;;;;;;5034006;28;19913;-76
2021/07/16 04:36:03;;;;;;;;;;;17.10;99.90;;;;;;5033979;28;19960;-77
2021/07/16 04:38:28;;;;;;;;;;;17.10;99.90;;;;;;5033580;28;19916;-77
2021/07/16 04:40:54;;;;;;;;;;;17.20;99.90;;;;;;5033647;28;19932;-77
2021/07/16 04:43:20;;;;;;;;;;;17.30;99.90;;;;;;5033651;28;19909;-78
2021/07/16 04:45:45;;;;;;;;;;;17.30;99.90;;;;;;5033555;28;19910;-77
2021/07/16 04:48:11;;;;;;;;;;;17.30;99.90;;;;;;5033528;28;19967;-77
2021/07/16 04:50:38;;;;;;;;;;;17.20;99.90;;;;;;5048843;28;19909;-77
2021/07/16 04:53:03;;;;;;;;;;;17.20;99.90;;;;;;5033482;28;20010;-77
2021/07/16 04:55:29;;;;;;;;;;;17.30;99.90;;;;;;5033503;28;19952;-77
2021/07/16 04:57:54;;;;;;;;;;;17.20;99.90;;;;;;5033805;28;20298;-77
2021/07/16 05:00:20;;;;;;;;;;;17.20;99.90;;;;;;5033691;28;19909;-76
2021/07/16 05:02:46;;;;;;;;;;;17.30;99.90;;;;;;5035701;28;19909;-76
2021/07/16 05:05:12;;;;;;;;;;;17.30;99.90;;;;;;5037338;28;19941;-76
2021/07/16 05:07:38;;;;;;;;;;;17.30;99.90;;;;;;5037019;28;19917;-75
2021/07/16 05:10:04;;;;;;;;;;;17.50;99.90;;;;;;5037191;28;19913;-77
2021/07/16 05:12:30;;;;;;;;;;;17.50;99.90;;;;;;5037231;28;20378;-76
2021/07/16 05:14:56;;;;;;;;;;;17.70;99.90;;;;;;5037140;28;19947;-77
2021/07/16 05:17:21;;;;;;;;;;;17.80;99.90;;;;;;5037144;28;19909;-78
2021/07/16 05:19:47;;;;;;;;;;;18.00;99.90;;;;;;5037386;28;20284;-77
2021/07/16 05:22:13;;;;;;;;;;;18.10;99.90;;;;;;5037265;28;19909;-77
2021/07/16 05:24:38;;;;;;;;;;;18.10;99.90;;;;;;5035370;28;19909;-76
2021/07/16 05:27:04;;;;;;;;;;;17.90;99.90;;;;;;5036973;28;19909;-76
2021/07/16 05:29:30;;;;;;;;;;;18.10;99.90;;;;;;5035660;28;19963;-76
2021/07/16 05:31:56;;;;;;;;;;;18.30;99.90;;;;;;5037278;28;20379;-78
2021/07/16 05:34:21;;;;;;;;;;;18.50;99.90;;;;;;5036953;28;20003;-77
2021/07/16 05:36:47;;;;;;;;;;;18.40;99.90;;;;;;5036959;28;20003;-77
2021/07/16 05:39:12;;;;;;;;;;;18.40;99.90;;;;;;5052058;28;20297;-78
2021/07/16 05:41:38;;;;;;;;;;;18.30;99.90;;;;;;5036796;28;19916;-76
2021/07/16 05:44:04;;;;;;;;;;;18.40;99.90;;;;;;5036609;28;19909;-76
2021/07/16 05:46:30;;;;;;;;;;;18.40;99.90;;;;;;5036570;28;19979;-77
2021/07/16 05:48:57;;;;;;;;;;;18.30;99.90;;;;;;5036578;28;20428;-76
2021/07/16 05:51:22;;;;;;;;;;;18.60;99.90;;;;;;5036548;28;19910;-78
2021/07/16 05:53:48;;;;;;;;;;;18.80;99.90;;;;;;5036428;28;19913;-76
2021/07/16 05:56:13;;;;;;;;;;;18.80;99.90;;;;;;5036454;28;20266;-77
2021/07/16 05:58:39;;;;;;;;;;;18.90;99.90;;;;;;5036660;28;19917;-77
2021/07/16 06:01:04;;;;;;;;;;;18.90;99.90;;;;;;5036630;28;19967;-78
2021/07/16 06:03:30;;;;;;;;;;;18.80;99.90;;;;;;5036432;28;19909;-78
2021/07/16 06:05:55;;;;;;;;;;;18.90;99.90;;;;;;5035871;28;20278;-77
2021/07/16 06:08:21;;;;;;;;;;;19.00;99.90;;;;;;5051276;28;19929;-77
2021/07/16 06:10:47;;;;;;;;;;;19.10;99.90;;;;;;5051377;28;19916;-77
2021/07/16 06:13:12;;;;;;;;;;;19.30;99.90;;;;;;5035022;28;19956;-76
2021/07/16 06:15:38;;;;;;;;;;;19.50;99.90;;;;;;5036194;28;20433;-78
2021/07/16 06:18:04;;;;;;;;;;;19.60;99.60;;;;;;5035998;28;19975;-78
2021/07/16 06:20:29;;;;;;;;;;;19.60;99.70;;;;;;5036357;28;19916;-77
2021/07/16 06:22:55;;;;;;;;;;;19.60;99.80;;;;;;5035839;28;19913;-77
2021/07/16 06:25:20;;;;;;;;;;;19.50;99.90;;;;;;5051208;28;19921;-77
2021/07/16 06:27:46;;;;;;;;;;;19.70;99.60;;;;;;5035916;28;19909;-77
2021/07/16 06:30:13;;;;;;;;;;;19.90;99.50;;;;;;5036296;28;19991;-77
2021/07/16 06:32:39;;;;;;;;;;;20.10;99.30;;;;;;5035657;28;20001;-77
2021/07/16 06:35:05;;;;;;;;;;;20.20;99.00;;;;;;5035588;28;20007;-76
2021/07/16 06:37:31;;;;;;;;;;;20.10;99.10;;;;;;5035612;28;19962;-77
2021/07/16 06:39:57;;;;;;;;;;;20.10;99.20;;;;;;5034295;28;20003;-76
2021/07/16 06:42:24;;;;;;;;;;;20.10;99.10;;;;;;5035554;28;20051;-77
2021/07/16 06:44:49;;;;;;;;;;;20.30;98.90;;;;;;5035841;28;19909;-78
2021/07/16 06:47:15;;;;;;;;;;;20.10;98.80;;;;;;5035462;28;20039;-77
2021/07/16 06:49:41;;;;;;;;;;;20.10;99.20;;;;;;5050712;28;19917;-77
2021/07/16 06:52:06;;;;;;;;;;;20.00;99.40;;;;;;5035442;28;19909;-77
2021/07/16 06:54:32;;;;;;;;;;;20.20;98.90;;;;;;5035222;28;19914;-79
2021/07/16 06:56:58;;;;;;;;;;;20.10;99.20;;;;;;5035397;28;19913;-78
2021/07/16 06:59:23;;;;;;;;;;;19.90;99.30;;;;;;5035269;28;20000;-77
2021/07/16 07:01:49;;;;;;;;;;;20.10;99.10;;;;;;5035179;28;20370;-78
2021/07/16 07:04:15;;;;;;;;;;;20.20;98.90;;;;;;5035512;28;19910;-78
2021/07/16 07:06:40;;;;;;;;;;;20.20;98.70;;;;;;5035064;28;19913;-77
2021/07/16 07:09:06;;;;;;;;;;;20.20;98.90;;;;;;5034653;28;19967;-78
2021/07/16 07:11:32;;;;;;;;;;;20.20;98.70;;;;;;5033631;28;20281;-78
2021/07/16 07:13:57;;;;;;;;;;;20.30;98.50;;;;;;5035283;28;19917;-79
2021/07/16 07:16:23;;;;;;;;;;;20.30;98.50;;;;;;5035135;28;19909;-76
2021/07/16 07:18:48;;;;;;;;;;;20.40;98.20;;;;;;5034820;28;19917;-77
2021/07/16 07:21:14;;;;;;;;;;;20.40;98.10;;;;;;5034746;28;19909;-76
2021/07/16 07:23:40;;;;;;;;;;;20.40;97.80;;;;;;5034582;28;19955;-76
2021/07/16 07:26:07;;;;;;;;;;;20.50;97.80;;;;;;5033417;28;19909;-76
2021/07/16 07:28:32;;;;;;;;;;;20.90;97.00;;;;;;5034678;28;19909;-78
2021/07/16 07:30:58;;;;;;;;;;;21.00;96.30;;;;;;5034695;28;19909;-77
2021/07/16 07:33:24;;;;;;;;;;;21.30;94.80;;;;;;5034528;28;19913;-78
2021/07/16 07:35:49;;;;;;;;;;;21.30;94.70;;;;;;5034536;28;19949;-79
2021/07/16 07:38:15;;;;;;;;;;;21.40;94.10;;;;;;5034785;28;20028;-78
2021/07/16 07:40:41;;;;;;;;;;;21.90;91.70;;;;;;5034477;28;19940;-79
2021/07/16 07:43:07;;;;;;;;;;;22.60;88.70;;;;;;5034292;28;19941;-75
2021/07/16 07:45:33;;;;;;;;;;;23.30;84.30;;;;;;5034747;28;19909;-75
2021/07/16 07:47:59;;;;;;;;;;;24.30;80.20;;;;;;5034303;28;19939;-79
2021/07/16 07:50:25;;;;;;;;;;;25.00;74.90;;;;;;5034228;28;19964;-76
2021/07/16 07:52:51;;;;;;;;;;;25.60;71.20;;;;;;5034144;28;19920;-76
2021/07/16 07:55:19;;;;;;;;;;;25.80;68.50;;;;;;5032936;28;19991;-75
2021/07/16 07:57:45;;;;;;;;;;;26.00;66.70;;;;;;5034168;28;19913;-77
2021/07/16 08:00:13;;;;;;;;;;;26.60;67.10;;;;;;5034230;28;19932;-76
2021/07/16 08:02:39;;;;;;;;;;;27.20;65.50;;;;;;5034142;28;19944;-75
2021/07/16 08:05:05;;;;;;;;;;;26.50;63.10;;;;;;5033991;28;19956;-76
2021/07/16 08:07:31;;;;;;;;;;;27.10;62.00;;;;;;5033527;28;19924;-77
2021/07/16 08:09:57;;;;;;;;;;;27.30;59.20;;;;;;5033841;28;19909;-76
2021/07/16 08:12:22;;;;;;;;;;;27.80;59.20;;;;;;5033567;28;20293;-76
2021/07/16 08:14:48;;;;;;;;;;;27.90;58.20;;;;;;5033802;28;20289;-77
2021/07/16 08:17:14;;;;;;;;;;;27.60;58.70;;;;;;5033810;28;19910;-76
2021/07/16 08:19:40;;;;;;;;;;;26.70;60.60;;;;;;5033860;28;19909;-76
2021/07/16 08:22:05;;;;;;;;;;;26.90;61.40;;;;;;5033737;28;19916;-74
2021/07/16 08:24:31;;;;;;;;;;;26.90;60.50;;;;;;5032364;28;19913;-76
2021/07/16 08:26:56;;;;;;;;;;;27.50;60.70;;;;;;5033656;28;19936;-77
2021/07/16 08:29:23;;;;;;;;;;;28.00;58.90;;;;;;5048992;28;20280;-76
2021/07/16 08:31:48;;;;;;;;;;;28.30;57.20;;;;;;5033671;28;19963;-76
2021/07/16 08:34:17;;;;;;;;;;;29.00;55.60;;;;;;5033535;28;19912;-75
2021/07/16 08:36:43;;;;;;;;;;;29.20;54.80;;;;;;5033160;28;19909;-76
2021/07/16 08:39:09;;;;;;;;;;;29.10;54.40;;;;;;5033805;28;19909;-74
2021/07/16 08:41:35;;;;;;;;;;;28.80;53.20;;;;;;5033543;28;20393;-75
2021/07/16 08:44:01;;;;;;;;;;;28.60;52.30;;;;;;5033579;28;20288;-74
2021/07/16 08:46:27;;;;;;;;;;;28.10;53.10;;;;;;5048795;28;19916;-76
2021/07/16 08:48:52;;;;;;;;;;;28.10;54.50;;;;;;5033516;28;19909;-75
2021/07/16 08:51:20;;;;;;;;;;;28.60;52.80;;;;;;5033485;28;19917;-76
2021/07/16 08:53:49;;;;;;;;;;;28.60;52.80;;;;;;5033355;28;19940;-76
2021/07/16 08:56:16;;;;;;;;;;;28.80;51.50;;;;;;5033399;28;20004;-75
2021/07/16 08:58:41;;;;;;;;;;;29.30;50.80;;;;;;5032148;28;20433;-74
2021/07/16 09:01:07;;;;;;;;;;;29.80;49.30;;;;;;5033644;28;19960;-73
2021/07/16 09:03:33;;;;;;;;;;;29.90;50.50;;;;;;5033323;28;19947;-75
2021/07/16 09:05:59;;;;;;;;;;;30.80;48.80;;;;;;5033595;28;20000;-74
2021/07/16 09:08:26;;;;;;;;;;;28.60;50.80;;;;;;5033222;28;19921;-76
2021/07/16 09:10:53;;;;;;;;;;;28.80;51.30;;;;;;5033292;28;20370;-75
2021/07/16 09:13:20;;;;;;;;;;;28.50;51.10;;;;;;5031845;28;20353;-76
2021/07/16 09:15:49;;;;;;;;;;;29.00;49.60;;;;;;5033324;28;19910;-76
2021/07/16 09:18:17;;;;;;;;;;;28.00;51.30;;;;;;5033065;28;20365;-74
2021/07/16 09:20:43;;;;;;;;;;;28.50;51.80;;;;;;5048472;28;19963;-74
2021/07/16 09:23:10;;;;;;;;;;;28.90;51.90;;;;;;5033104;28;19910;-75
2021/07/16 09:25:36;;;;;;;;;;;29.50;50.60;;;;;;5033217;28;19909;-76
2021/07/16 09:28:02;;;;;;;;;;;29.70;49.40;;;;;;5033157;28;19913;-75
2021/07/16 09:30:29;;;;;;;;;;;29.60;46.30;;;;;;5033282;28;20008;-74
2021/07/16 09:32:59;;;;;;;;;;;29.10;46.10;;;;;;5032977;28;19913;-75
2021/07/16 09:35:29;;;;;;;;;;;29.80;46.10;;;;;;5033141;28;20373;-75
2021/07/16 09:38:02;;;;;;;;;;;30.00;46.10;;;;;;5048361;28;20373;-76
2021/07/16 09:40:34;;;;;;;;;;;30.30;46.50;;;;;;5033222;28;19909;-75
2021/07/16 09:43:01;;;;;;;;;;;30.60;46.10;;;;;;5031410;28;19916;-75
2021/07/16 09:45:26;;;;;;;;;;;30.40;45.50;;;;;;5033012;28;19949;-75
2021/07/16 09:47:52;;;;;;;;;;;30.50;43.70;;;;;;5033256;28;19945;-76
2021/07/16 09:50:21;;;;;;;;;;;30.70;43.50;;;;;;5036416;28;19909;-75
2021/07/16 09:52:47;;;;;;;;;;;31.30;42.80;;;;;;5036254;28;19914;-75
2021/07/16 09:55:15;;;;;;;;;;;31.90;43.50;;;;;;5051631;28;19986;-74
2021/07/16 09:57:47;;;;;;;;;;;31.60;44.50;;;;;;5036311;28;20297;-75
2021/07/16 10:00:14;;;;;;;;;;;32.30;44.30;;;;;;5036235;28;19909;-74
2021/07/16 10:02:41;;;;;;;;;;;32.10;43.90;;;;;;5036277;28;19917;-76
2021/07/16 10:05:07;;;;;;;;;;;31.80;44.20;;;;;;5036188;28;20347;-75
2021/07/16 10:07:34;;;;;;;;;;;31.90;44.30;;;;;;5036043;28;19921;-76
2021/07/16 10:10:00;;;;;;;;;;;31.60;42.90;;;;;;5036091;28;19916;-76
2021/07/16 10:12:26;;;;;;;;;;;31.80;43.60;;;;;;5036118;28;19909;-75
2021/07/16 10:14:52;;;;;;;;;;;32.10;42.70;;;;;;5035957;28;19919;-75
2021/07/16 10:17:17;;;;;;;;;;;32.20;41.60;;;;;;5035900;28;19909;-74
2021/07/16 10:19:43;;;;;;;;;;;31.70;41.70;;;;;;5036016;28;20373;-75
2021/07/16 10:22:09;;;;;;;;;;;32.20;41.60;;;;;;5035895;28;19914;-77
2021/07/16 10:24:36;;;;;;;;;;;32.60;41.20;;;;;;5051186;28;20360;-76
2021/07/16 10:27:04;;;;;;;;;;;32.80;40.90;;;;;;5035994;28;20369;-75
2021/07/16 10:29:37;;;;;;;;;;;33.30;40.60;;;;;;5035840;28;19909;-76
2021/07/16 10:32:03;;;;;;;;;;;33.20;40.20;;;;;;5035846;28;20357;-76
2021/07/16 10:34:31;;;;;;;;;;;33.10;40.20;;;;;;5035623;28;19955;-75
2021/07/16 10:37:02;;;;;;;;;;;34.00;38.40;;;;;;5035571;28;19956;-75
2021/07/16 10:39:47;;;;;;;;;;;33.80;38.80;;;;;;5035565;28;19909;-76
2021/07/16 10:42:25;;;;;;;;;;;33.90;38.80;;;;;;5035451;28;19963;-76
2021/07/16 10:44:51;;;;;;;;;;;34.40;37.90;;;;;;5035312;28;19909;-77
2021/07/16 10:47:33;;;;;;;;;;;35.10;37.60;;;;;;5034130;28;20000;-76
2021/07/16 10:49:59;;;;;;;;;;;34.80;36.20;;;;;;5035416;28;19942;-74
2021/07/16 10:52:43;;;;;;;;;;;35.00;36.20;;;;;;5035366;28;19910;-77
2021/07/16 10:55:09;;;;;;;;;;;35.20;35.90;;;;;;5035186;28;19991;-77
2021/07/16 10:57:41;;;;;;;;;;;34.50;36.80;;;;;;5035196;28;19910;-76
2021/07/16 11:00:08;;;;;;;;;;;35.30;36.90;;;;;;5033364;28;20006;-75
2021/07/16 11:02:44;;;;;;;;;;;36.30;36.10;;;;;;5035067;28;19909;-77
2021/07/16 11:05:28;;;;;;;;;;;36.00;35.50;;;;;;5035149;28;19909;-76
2021/07/16 11:07:54;;;;;;;;;;;36.60;35.30;;;;;;5033466;28;19927;-75
2021/07/16 11:10:38;;;;;;;;;;;36.60;34.40;;;;;;5034892;28;19909;-75
2021/07/16 11:13:22;;;;;;;;;;;37.00;33.70;;;;;;5033472;28;19913;-75
2021/07/16 11:15:48;;;;;;;;;;;36.50;34.90;;;;;;5035091;28;19916;-75
2021/07/16 11:18:26;;;;;;;;;;;35.90;34.10;;;;;;5034894;28;20373;-78
2021/07/16 11:20:51;;;;;;;;;;;36.00;34.50;;;;;;5034795;28;19913;-76
2021/07/16 11:23:19;;;;;;;;;;;36.50;34.20;;;;;;5033375;28;19931;-77
2021/07/16 11:25:45;;;;;;;;;;;36.70;34.20;;;;;;5034659;28;19909;-77
2021/07/16 11:28:11;;;;;;;;;;;36.00;35.20;;;;;;5034598;28;19909;-76
2021/07/16 11:30:37;;;;;;;;;;;35.90;35.60;;;;;;5034722;28;19909;-77
2021/07/16 11:33:04;;;;;;;;;;;36.20;36.10;;;;;;5034439;28;20369;-77
2021/07/16 11:35:30;;;;;;;;;;;37.10;35.30;;;;;;5034455;28;19916;-75
2021/07/16 11:37:55;;;;;;;;;;;36.00;34.00;;;;;;5033076;28;19959;-76
2021/07/16 11:40:26;;;;;;;;;;;36.60;34.20;;;;;;5034376;28;19913;-76
2021/07/16 11:42:56;;;;;;;;;;;37.70;33.80;;;;;;5033046;28;19920;-76
2021/07/16 11:45:23;;;;;;;;;;;37.80;34.00;;;;;;5034227;28;20003;-75
2021/07/16 11:47:49;;;;;;;;;;;36.30;33.60;;;;;;5034292;28;19909;-76
2021/07/16 11:50:15;;;;;;;;;;;36.20;35.00;;;;;;5034172;28;19916;-77
2021/07/16 11:52:41;;;;;;;;;;;37.00;33.90;;;;;;5034154;28;19909;-74
2021/07/16 11:55:09;;;;;;;;;;;37.10;33.70;;;;;;5034128;28;20377;-77
2021/07/16 11:57:36;;;;;;;;;;;37.40;33.10;;;;;;5034306;28;19909;-76
2021/07/16 12:00:04;;;;;;;;;;;37.10;33.70;;;;;;5033990;28;19913;-77
2021/07/16 12:02:29;;;;;;;;;;;36.90;33.50;;;;;;5032524;28;19909;-76
2021/07/16 12:05:01;;;;;;;;;;;37.30;33.30;;;;;;5032638;28;19920;-76
2021/07/16 12:07:34;;;;;;;;;;;37.10;33.00;;;;;;5033697;28;19925;-76
2021/07/16 12:09:59;;;;;;;;;;;37.20;33.20;;;;;;5033698;28;20258;-77
2021/07/16 12:12:25;;;;;;;;;;;37.10;32.40;;;;;;5033189;28;19958;-76
2021/07/16 12:14:52;;;;;;;;;;;36.90;33.20;;;;;;5033770;28;19909;-76
2021/07/16 12:17:24;;;;;;;;;;;36.90;33.20;;;;;;5032491;28;19910;-75
2021/07/16 12:19:51;;;;;;;;;;;37.30;33.30;;;;;;5033863;28;19952;-76
2021/07/16 12:22:19;;;;;;;;;;;36.80;32.70;;;;;;5033875;28;19909;-76
2021/07/16 12:24:45;;;;;;;;;;;36.60;32.90;;;;;;5033553;28;19967;-77
2021/07/16 12:27:13;;;;;;;;;;;36.80;33.80;;;;;;5032337;28;20391;-75
2021/07/16 12:29:40;;;;;;;;;;;37.30;33.70;;;;;;5034063;28;19909;-77
2021/07/16 12:32:06;;;;;;;;;;;37.20;33.40;;;;;;5032255;28;20404;-77
2021/07/16 12:34:31;;;;;;;;;;;38.00;32.20;;;;;;5033757;28;20019;-77
2021/07/16 12:37:11;;;;;;;;;;;38.20;32.00;;;;;;5048888;28;19909;-76
2021/07/16 12:39:37;;;;;;;;;;;38.20;32.50;;;;;;5033787;28;19974;-76
2021/07/16 12:42:06;;;;;;;;;;;38.10;32.50;;;;;;5033477;28;19916;-76
2021/07/16 12:44:32;;;;;;;;;;;37.70;32.40;;;;;;5033644;28;19920;-76
2021/07/16 12:46:58;;;;;;;;;;;37.90;31.80;;;;;;5048703;28;20321;-77
2021/07/16 12:49:24;;;;;;;;;;;37.40;31.20;;;;;;5033644;28;19952;-75
2021/07/16 12:51:49;;;;;;;;;;;37.30;31.20;;;;;;5033365;28;19955;-76
2021/07/16 12:54:16;;;;;;;;;;;36.80;32.70;;;;;;5033590;28;19913;-77
2021/07/16 12:56:42;;;;;;;;;;;36.60;32.60;;;;;;5048587;28;20321;-77
2021/07/16 12:59:25;;;;;;;;;;;36.90;33.20;;;;;;5033303;28;19960;-77
2021/07/16 13:01:52;;;;;;;;;;;36.70;33.90;;;;;;5033280;28;19941;-76
2021/07/16 13:04:19;;;;;;;;;;;37.70;33.80;;;;;;5033382;28;19921;-75
2021/07/16 13:06:45;;;;;;;;;;;37.50;33.50;;;;;;5033321;28;20000;-76
2021/07/16 13:09:12;;;;;;;;;;;37.70;33.20;;;;;;5032814;28;20023;-76
2021/07/16 13:11:38;;;;;;;;;;;37.70;34.00;;;;;;5048561;28;19916;-77
2021/07/16 13:14:04;;;;;;;;;;;37.10;34.20;;;;;;5033361;28;19913;-77
2021/07/16 13:16:30;;;;;;;;;;;36.90;35.30;;;;;;5033239;28;19916;-77
2021/07/16 13:18:56;;;;;;;;;;;37.00;34.40;;;;;;5033490;28;19913;-76
2021/07/16 13:21:22;;;;;;;;;;;37.00;33.70;;;;;;5033238;28;19921;-76
2021/07/16 13:23:48;;;;;;;;;;;36.20;36.70;;;;;;5036521;28;19909;-77
2021/07/16 13:26:15;;;;;;;;;;;36.30;35.40;;;;;;5037060;28;19932;-77
2021/07/16 13:28:42;;;;;;;;;;;36.80;35.00;;;;;;5036834;28;19945;-76
2021/07/16 13:31:09;;;;;;;;;;;37.30;34.70;;;;;;5035484;28;19943;-77
2021/07/16 13:33:34;;;;;;;;;;;37.30;35.00;;;;;;5036604;28;20357;-76
2021/07/16 13:36:01;;;;;;;;;;;38.00;34.30;;;;;;5037040;28;20004;-77
2021/07/16 13:38:32;;;;;;;;;;;37.50;34.40;;;;;;5036687;28;20358;-77
2021/07/16 13:40:59;;;;;;;;;;;37.00;34.40;;;;;;5036669;28;19952;-78
2021/07/16 13:43:25;;;;;;;;;;;36.80;35.10;;;;;;5036511;28;19909;-76
2021/07/16 13:45:50;;;;;;;;;;;37.50;35.20;;;;;;5036466;28;20289;-77
2021/07/16 13:48:16;;;;;;;;;;;37.00;33.20;;;;;;5036460;28;19909;-75
2021/07/16 13:50:41;;;;;;;;;;;36.60;36.50;;;;;;5036373;28;20333;-77
2021/07/16 13:53:07;;;;;;;;;;;36.50;36.90;;;;;;5036288;28;19913;-77
2021/07/16 13:55:33;;;;;;;;;;;36.10;36.60;;;;;;5036411;28;20377;-75
2021/07/16 13:57:58;;;;;;;;;;;36.30;36.10;;;;;;5036263;28;19909;-75
2021/07/16 14:00:24;;;;;;;;;;;36.50;36.00;;;;;;5036471;28;19916;-76
2021/07/16 14:02:50;;;;;;;;;;;36.50;34.60;;;;;;5036220;28;19909;-77
2021/07/16 14:05:19;;;;;;;;;;;36.70;35.00;;;;;;5051623;28;19909;-76
2021/07/16 14:07:45;;;;;;;;;;;37.40;34.30;;;;;;5035872;28;19950;-77
2021/07/16 14:10:12;;;;;;;;;;;36.80;34.20;;;;;;5036242;28;20004;-75
2021/07/16 14:12:38;;;;;;;;;;;36.30;34.30;;;;;;5036226;28;19909;-77